Time;durP1;ratioP1;P1;durP2;ratioP2;P2;SDS_P1;SDS_P2;PMS_P1;PMS_P2;Temp;Humidity;BMP_temperature;BMP_pressure;BME280_temperature;BME280_humidity;BME280_pressure;Samples;Min_cycle;Max_cycle;Signal;HPM_P1;HPM_P2
2023/03/06 00:03:34;;;;;;;;;;;;;;;19.12;32.28;94850.88;10468014;28;2593;-55
2023/03/06 00:08:44;;;;;;;;;;;;;;;19.12;32.09;94844.84;10458718;28;3116;-51
2023/03/06 00:13:45;;;;;;;;;;;;;;;19.08;32.11;94847.25;10480569;28;3188;-57
2023/03/06 00:18:46;;;;;;;;;;;;;;;19.08;32.00;94836.75;10457957;28;3135;-56
2023/03/06 00:23:46;;;;;;;;;;;;;;;19.07;32.03;94827.31;10476960;28;3267;-55
2023/03/06 00:28:47;;;;;;;;;;;;;;;19.05;31.98;94829.44;10464194;28;3120;-54
2023/03/06 00:33:48;;;;;;;;;;;;;;;19.04;31.98;94821.84;10472683;28;3127;-53
2023/03/06 00:38:48;;;;;;;;;;;;;;;19.02;31.92;94818.75;10478218;28;2605;-53
2023/03/06 00:43:48;;;;;;;;;;;;;;;19.00;32.06;94808.50;10466442;28;3267;-55
2023/03/06 00:48:50;;;;;;;;;;;;;;;19.00;31.84;94810.38;10485606;28;3171;-56
2023/03/06 00:53:51;;;;;;;;;;;;;;;18.97;31.87;94798.56;10473565;28;3148;-53
2023/03/06 00:59:01;;;;;;;;;;;;;;;18.96;31.75;94793.63;10455375;28;3135;-55
2023/03/06 01:04:02;;;;;;;;;;;;;;;18.94;31.65;94775.50;10478247;28;3185;-57
2023/03/06 01:09:03;;;;;;;;;;;;;;;18.92;31.76;94772.38;10463066;28;3229;-55
2023/03/06 01:14:03;;;;;;;;;;;;;;;18.91;31.59;94768.22;10476949;28;3295;-55
2023/03/06 01:19:04;;;;;;;;;;;;;;;18.89;31.64;94765.09;10476152;28;3117;-57
2023/03/06 01:24:05;;;;;;;;;;;;;;;18.88;31.60;94752.22;10471436;28;3097;-56
2023/03/06 01:29:06;;;;;;;;;;;;;;;18.87;31.44;94754.09;10480457;28;2546;-56
2023/03/06 01:34:07;;;;;;;;;;;;;;;18.84;31.41;94733.66;10477615;28;3158;-55
2023/03/06 01:39:08;;;;;;;;;;;;;;;18.82;31.37;94727.13;10474757;28;2635;-55
2023/03/06 01:44:12;;;;;;;;;;;;;;;18.80;31.46;94716.91;10470952;28;3175;-55
2023/03/06 01:49:24;;;;;;;;;;;;;;;18.80;31.20;94697.75;10486786;28;3148;-54
2023/03/06 01:54:44;;;;;;;;;;;;;;;18.79;31.13;94689.09;10466569;28;3132;-54
2023/03/06 01:59:44;;;;;;;;;;;;;;;18.78;31.13;94679.66;10466010;28;3194;-54
2023/03/06 02:04:45;;;;;;;;;;;;;;;18.75;31.13;94677.63;10457981;28;3158;-56
2023/03/06 02:09:45;;;;;;;;;;;;;;;18.74;31.05;94672.63;10456968;28;2652;-54
2023/03/06 02:14:46;;;;;;;;;;;;;;;18.72;31.12;94678.19;10472500;28;3200;-55
2023/03/06 02:20:06;;;;;;;;;;;;;;;18.71;30.96;94666.13;10464322;28;3143;-56
2023/03/06 02:25:22;;;;;;;;;;;;;;;18.68;30.90;94661.44;10474098;28;2585;-56
2023/03/06 02:30:24;;;;;;;;;;;;;;;18.67;30.91;94646.75;10464579;28;3117;-54
2023/03/06 02:35:25;;;;;;;;;;;;;;;18.66;30.97;94647.84;10473256;28;3239;-54
2023/03/06 02:40:26;;;;;;;;;;;;;;;18.64;30.90;94642.88;10465254;28;2694;-54
2023/03/06 02:45:29;;;;;;;;;;;;;;;18.62;30.92;94638.97;10470200;28;2633;-52
2023/03/06 02:50:29;;;;;;;;;;;;;;;18.61;30.92;94632.16;10450036;28;2623;-54
2023/03/06 02:55:30;;;;;;;;;;;;;;;18.58;31.03;94630.13;10475829;28;3148;-53
2023/03/06 03:00:32;;;;;;;;;;;;;;;18.59;30.78;94623.78;10470855;28;2550;-53
2023/03/06 03:05:32;;;;;;;;;;;;;;;18.56;30.86;94617.28;10482077;28;3171;-54
2023/03/06 03:10:42;;;;;;;;;;;;;;;18.55;30.88;94610.47;10470828;28;3151;-55
2023/03/06 03:15:43;;;;;;;;;;;;;;;18.54;30.95;94605.53;10468293;28;3202;-55
2023/03/06 03:20:44;;;;;;;;;;;;;;;18.53;30.84;94606.56;10450522;28;3213;-55
2023/03/06 03:25:45;;;;;;;;;;;;;;;18.51;30.69;94609.50;10468041;28;3173;-56
2023/03/06 03:30:46;;;;;;;;;;;;;;;18.50;30.78;94597.44;10481719;28;3136;-54
2023/03/06 03:35:54;;;;;;;;;;;;;;;18.49;30.79;94589.84;10477499;28;3272;-54
2023/03/06 03:40:55;;;;;;;;;;;;;;;18.47;30.85;94592.75;10459897;28;3176;-56
2023/03/06 03:45:56;;;;;;;;;;;;;;;18.46;30.77;94585.19;10469574;28;3100;-55
2023/03/06 03:51:06;;;;;;;;;;;;;;;18.45;30.77;94589.66;10475059;28;2633;-53
2023/03/06 03:56:06;;;;;;;;;;;;;;;18.44;30.80;94584.69;10459835;28;3285;-54
2023/03/06 04:01:06;;;;;;;;;;;;;;;18.42;30.80;94584.94;10478580;28;3228;-53
2023/03/06 04:06:08;;;;;;;;;;;;;;;18.40;30.83;94587.06;10480214;28;3155;-54
2023/03/06 04:11:09;;;;;;;;;;;;;;;18.40;30.86;94570.56;10477917;28;3119;-55
2023/03/06 04:16:09;;;;;;;;;;;;;;;18.39;30.74;94559.28;10471535;28;3188;-55
2023/03/06 04:21:10;;;;;;;;;;;;;;;18.39;30.84;94561.13;10475111;28;2577;-55
2023/03/06 04:26:11;;;;;;;;;;;;;;;18.37;30.88;94553.53;10480300;28;3164;-50
2023/03/06 04:31:12;;;;;;;;;;;;;;;18.35;30.79;94547.81;10487460;28;3157;-54
2023/03/06 04:36:16;;;;;;;;;;;;;;;18.35;30.75;94557.53;10482360;28;2639;-51
2023/03/06 04:41:17;;;;;;;;;;;;;;;18.33;30.75;94551.78;10458596;28;2608;-54
2023/03/06 04:46:18;;;;;;;;;;;;;;;18.33;30.82;94547.31;10474000;28;3229;-52
2023/03/06 04:51:19;;;;;;;;;;;;;;;18.31;30.77;94543.41;10478431;28;3141;-54
2023/03/06 04:56:29;;;;;;;;;;;;;;;18.30;30.76;94555.00;10469912;28;3191;-54
2023/03/06 05:01:30;;;;;;;;;;;;;;;18.28;30.77;94552.63;10465534;28;2692;-54
2023/03/06 05:06:30;;;;;;;;;;;;;;;18.29;30.83;94542.94;10463769;28;3192;-55
2023/03/06 05:11:30;;;;;;;;;;;;;;;18.31;30.63;94538.19;10477034;28;3108;-54
2023/03/06 05:16:31;;;;;;;;;;;;;;;18.34;30.46;94530.50;10464602;28;3160;-54
2023/03/06 05:21:32;;;;;;;;;;;;;;;18.41;30.29;94528.28;10463196;28;3132;-53
2023/03/06 05:26:33;;;;;;;;;;;;;;;18.51;30.11;94524.72;10453521;28;3171;-55
2023/03/06 05:31:43;;;;;;;;;;;;;;;18.60;29.99;94528.25;10474849;28;3124;-53
2023/03/06 05:36:47;;;;;;;;;;;;;;;18.68;29.96;94519.72;10468590;28;3176;-54
2023/03/06 05:41:47;;;;;;;;;;;;;;;18.75;29.91;94517.50;10468317;28;2745;-55
2023/03/06 05:46:48;;;;;;;;;;;;;;;18.83;29.84;94521.28;10474052;28;3192;-56
2023/03/06 05:51:56;;;;;;;;;;;;;;;18.87;29.97;94523.03;10474916;28;3174;-55
2023/03/06 05:56:57;;;;;;;;;;;;;;;18.92;29.75;94525.53;10470530;28;2577;-55
2023/03/06 06:01:59;;;;;;;;;;;;;;;18.95;29.82;94519.72;10454980;28;2939;-54
2023/03/06 06:06:59;;;;;;;;;;;;;;;19.01;29.69;94526.44;10462938;28;3171;-55
2023/03/06 06:12:01;;;;;;;;;;;;;;;19.06;29.76;94531.56;10466890;28;3292;-56
2023/03/06 06:17:11;;;;;;;;;;;;;;;19.10;29.52;94519.41;10452817;28;3162;-55
2023/03/06 06:22:14;;;;;;;;;;;;;;;19.14;29.49;94527.50;10462228;28;3054;-50
2023/03/06 06:27:15;;;;;;;;;;;;;;;19.14;29.50;94528.28;10473216;28;3152;-54
2023/03/06 06:32:15;;;;;;;;;;;;;;;19.16;29.49;94536.66;10465467;28;3206;-52
2023/03/06 06:37:15;;;;;;;;;;;;;;;19.19;29.46;94545.78;10464277;28;2676;-53
2023/03/06 06:42:16;;;;;;;;;;;;;;;19.19;29.53;94535.25;10467120;28;3152;-54
2023/03/06 06:47:17;;;;;;;;;;;;;;;19.23;29.36;94541.47;10448816;28;3132;-53
2023/03/06 06:52:18;;;;;;;;;;;;;;;19.26;29.29;94535.66;10460821;28;2642;-53
2023/03/06 06:57:18;;;;;;;;;;;;;;;19.29;29.20;94548.19;10460420;28;3177;-54
2023/03/06 07:02:19;;;;;;;;;;;;;;;19.29;29.14;94543.72;10468637;28;3187;-49
2023/03/06 07:07:19;;;;;;;;;;;;;;;19.32;29.22;94545.78;10456923;28;3163;-50
2023/03/06 07:12:20;;;;;;;;;;;;;;;19.33;29.19;94549.97;10487289;28;3155;-49
2023/03/06 07:17:20;;;;;;;;;;;;;;;19.36;28.94;94546.78;10469749;28;3322;-50
2023/03/06 07:22:20;;;;;;;;;;;;;;;19.37;29.04;94543.06;10456378;28;2605;-52
2023/03/06 07:27:22;;;;;;;;;;;;;;;19.40;28.96;94537.22;10460711;28;3187;-51
2023/03/06 07:32:22;;;;;;;;;;;;;;;19.39;29.04;94535.66;10457941;28;3191;-52
2023/03/06 07:37:23;;;;;;;;;;;;;;;19.44;29.01;94535.56;10466853;28;3135;-51
2023/03/06 07:42:24;;;;;;;;;;;;;;;19.46;29.12;94540.50;10467894;28;3159;-58
2023/03/06 07:47:25;;;;;;;;;;;;;;;19.48;29.56;94544.41;10462792;28;2605;-58
2023/03/06 07:52:25;;;;;;;;;;;;;;;19.53;29.73;94546.16;10477127;28;3175;-58
2023/03/06 07:57:25;;;;;;;;;;;;;;;19.57;29.55;94548.97;10473481;28;2602;-56
2023/03/06 08:02:25;;;;;;;;;;;;;;;19.61;29.57;94553.34;10472933;28;3315;-58
2023/03/06 08:07:27;;;;;;;;;;;;;;;19.63;29.55;94553.03;10474207;28;3159;-55
2023/03/06 08:12:27;;;;;;;;;;;;;;;19.62;29.90;94562.00;10472015;28;3230;-53
2023/03/06 08:17:28;;;;;;;;;;;;;;;19.61;29.89;94563.84;10464766;28;2612;-58
2023/03/06 08:22:29;;;;;;;;;;;;;;;19.61;29.95;94561.22;10463939;28;3175;-58
2023/03/06 08:27:29;;;;;;;;;;;;;;;19.59;30.46;94566.00;10450007;28;3152;-52
2023/03/06 08:32:33;;;;;;;;;;;;;;;19.59;30.67;94575.72;10478413;28;3167;-54
2023/03/06 08:37:33;;;;;;;;;;;;;;;19.58;30.82;94574.94;10476078;28;3188;-54
2023/03/06 08:42:34;;;;;;;;;;;;;;;19.55;30.98;94564.25;10480975;28;3487;-55
2023/03/06 08:47:35;;;;;;;;;;;;;;;19.52;31.13;94572.72;10478869;28;3157;-53
2023/03/06 08:52:35;;;;;;;;;;;;;;;19.47;31.09;94571.75;10472214;28;3215;-55
2023/03/06 08:57:36;;;;;;;;;;;;;;;19.45;31.24;94586.28;10470398;28;3283;-54
2023/03/06 09:02:36;;;;;;;;;;;;;;;19.42;31.08;94586.84;10475313;28;3155;-55
2023/03/06 09:07:37;;;;;;;;;;;;;;;19.38;31.27;94584.03;10470367;28;2534;-55
2023/03/06 09:12:37;;;;;;;;;;;;;;;19.35;31.14;94589.88;10474563;28;3124;-54
2023/03/06 09:17:37;;;;;;;;;;;;;;;19.32;31.08;94587.81;10474360;28;3354;-57
2023/03/06 09:22:41;;;;;;;;;;;;;;;19.28;31.07;94581.59;10466681;28;3097;-53
2023/03/06 09:27:43;;;;;;;;;;;;;;;19.25;31.08;94584.78;10479448;28;2576;-51
2023/03/06 09:32:53;;;;;;;;;;;;;;;19.23;31.22;94589.56;10469838;28;3307;-55
2023/03/06 09:37:54;;;;;;;;;;;;;;;19.19;31.28;94593.84;10467994;28;3228;-53
2023/03/06 09:42:55;;;;;;;;;;;;;;;19.18;31.11;94594.94;10478058;28;3285;-51
2023/03/06 09:47:59;;;;;;;;;;;;;;;19.13;31.07;94591.59;10484036;28;3244;-50
2023/03/06 09:53:14;;;;;;;;;;;;;;;19.08;31.18;94581.19;10444840;28;2706;-54
2023/03/06 09:58:17;;;;;;;;;;;;;;;19.06;31.09;94589.34;10474511;28;2849;-53
2023/03/06 10:03:18;;;;;;;;;;;;;;;19.01;31.12;94581.59;10480485;28;3320;-54
2023/03/06 10:08:25;;;;;;;;;;;;;;;19.00;30.96;94587.88;10481960;28;2797;-54
2023/03/06 10:13:57;;;;;;;;;;;;;;;18.96;31.01;94584.28;10483739;28;3368;-53
2023/03/06 10:18:59;;;;;;;;;;;;;;;18.93;31.04;94584.09;10448779;28;3377;-53
2023/03/06 10:24:14;;;;;;;;;;;;;;;18.88;31.16;94574.47;10475036;28;2704;-54
2023/03/06 10:29:29;;;;;;;;;;;;;;;18.86;31.14;94576.59;10456751;28;2976;-53
2023/03/06 10:34:30;;;;;;;;;;;;;;;18.84;31.10;94573.50;10459951;28;2740;-53
2023/03/06 10:39:31;;;;;;;;;;;;;;;18.82;30.97;94574.84;10460340;28;3232;-54
2023/03/06 10:44:32;;;;;;;;;;;;;;;18.79;30.91;94570.19;10458497;28;2783;-55
2023/03/06 10:49:33;;;;;;;;;;;;;;;18.77;30.99;94564.44;10461195;28;2714;-53
2023/03/06 10:54:35;;;;;;;;;;;;;;;18.75;31.08;94569.22;10478209;28;3237;-53
2023/03/06 10:59:35;;;;;;;;;;;;;;;18.73;30.92;94566.09;10475509;28;3397;-52
2023/03/06 11:04:35;;;;;;;;;;;;;;;18.69;30.99;94558.78;10465745;28;3284;-51
2023/03/06 11:09:35;;;;;;;;;;;;;;;18.67;30.97;94560.91;10473002;28;3276;-50
2023/03/06 11:14:36;;;;;;;;;;;;;;;18.66;31.04;94558.59;10478243;28;2797;-53
2023/03/06 11:19:36;;;;;;;;;;;;;;;18.63;31.14;94556.53;10472757;28;2860;-53
2023/03/06 11:24:38;;;;;;;;;;;;;;;18.62;31.23;94553.16;10468127;28;3470;-53
2023/03/06 11:29:41;;;;;;;;;;;;;;;18.62;31.68;94544.50;10461097;28;3237;-50
2023/03/06 11:34:49;;;;;;;;;;;;;;;18.62;31.89;94544.50;10493135;28;3396;-53
2023/03/06 11:39:54;;;;;;;;;;;;;;;18.61;32.13;94541.09;10473307;28;3328;-54
2023/03/06 11:45:13;;;;;;;;;;;;;;;18.60;32.12;94550.03;10486644;28;2812;-50
2023/03/06 11:50:17;;;;;;;;;;;;;;;18.59;32.14;94552.94;10475724;28;2787;-55
2023/03/06 11:55:26;;;;;;;;;;;;;;;18.58;32.07;94551.38;10473796;28;2767;-54
2023/03/06 12:00:46;;;;;;;;;;;;;;;18.56;32.05;94551.69;10464418;28;3324;-55
2023/03/06 12:05:50;;;;;;;;;;;;;;;18.54;32.01;94545.16;10462339;28;3389;-53
2023/03/06 12:11:04;;;;;;;;;;;;;;;18.53;32.04;94556.72;10479389;28;3304;-52
2023/03/06 12:16:04;;;;;;;;;;;;;;;18.51;31.89;94541.25;10455079;28;3759;-54
2023/03/06 12:21:16;;;;;;;;;;;;;;;18.47;31.92;94532.41;10487953;28;3236;-52
2023/03/06 12:26:35;;;;;;;;;;;;;;;18.45;32.03;94528.50;10480245;28;3373;-53
2023/03/06 12:31:48;;;;;;;;;;;;;;;18.42;31.86;94529.06;10479929;28;3323;-53
2023/03/06 12:37:07;;;;;;;;;;;;;;;18.41;31.79;94524.88;10478489;28;2721;-51
2023/03/06 12:42:26;;;;;;;;;;;;;;;18.38;31.88;94520.22;10477622;28;3237;-51
2023/03/06 12:47:27;;;;;;;;;;;;;;;18.36;31.92;94527.63;10484424;28;3232;-51
2023/03/06 12:52:30;;;;;;;;;;;;;;;18.34;31.95;94533.13;10463819;28;3032;-55
2023/03/06 12:57:37;;;;;;;;;;;;;;;18.32;31.88;94532.63;10453295;28;3244;-52
2023/03/06 13:02:57;;;;;;;;;;;;;;;18.30;31.73;94526.13;10470210;28;2762;-54
2023/03/06 13:08:12;;;;;;;;;;;;;;;18.29;31.74;94521.94;10471238;28;2683;-51
2023/03/06 13:13:31;;;;;;;;;;;;;;;18.26;31.73;94522.53;10476528;28;3412;-53
2023/03/06 13:18:32;;;;;;;;;;;;;;;18.24;31.74;94520.19;10471521;28;3315;-54
2023/03/06 13:23:32;;;;;;;;;;;;;;;18.23;31.67;94518.63;10478083;28;3564;-52
2023/03/06 13:28:43;;;;;;;;;;;;;;;18.19;31.62;94517.66;10472154;28;2832;-52
2023/03/06 13:33:55;;;;;;;;;;;;;;;18.20;31.75;94523.66;10476471;28;3637;-54
2023/03/06 13:38:58;;;;;;;;;;;;;;;18.16;31.57;94509.56;10460891;28;3296;-52
2023/03/06 13:44:20;;;;;;;;;;;;;;;18.15;31.52;94505.41;10477211;28;3264;-53
2023/03/06 13:49:20;;;;;;;;;;;;;;;18.13;31.55;94504.91;10472845;28;2785;-52
2023/03/06 13:54:21;;;;;;;;;;;;;;;18.12;31.61;94506.75;10483085;28;2743;-52
2023/03/06 13:59:40;;;;;;;;;;;;;;;18.11;31.55;94507.03;10483065;28;3321;-51
2023/03/06 14:04:53;;;;;;;;;;;;;;;18.08;31.43;94499.75;10479390;28;3323;-53
2023/03/06 14:10:12;;;;;;;;;;;;;;;18.08;31.55;94499.75;10472927;28;3324;-53
2023/03/06 14:15:20;;;;;;;;;;;;;;;18.07;31.67;94495.56;10474203;28;2742;-53
2023/03/06 14:20:30;;;;;;;;;;;;;;;18.07;31.65;94504.22;10459260;28;3319;-53
2023/03/06 14:25:30;;;;;;;;;;;;;;;18.06;31.67;94496.63;10457694;28;2737;-52
2023/03/06 14:30:31;;;;;;;;;;;;;;;18.04;31.66;94494.28;10493179;28;3260;-52
2023/03/06 14:35:33;;;;;;;;;;;;;;;18.04;31.69;94490.88;10469308;28;3347;-53
2023/03/06 14:40:34;;;;;;;;;;;;;;;18.06;31.65;94491.38;10456580;28;3441;-51
2023/03/06 14:45:35;;;;;;;;;;;;;;;18.09;31.67;94485.56;10473473;28;3231;-52
2023/03/06 14:50:38;;;;;;;;;;;;;;;18.15;31.34;94481.78;10468541;28;3174;-54
2023/03/06 14:55:52;;;;;;;;;;;;;;;18.24;31.31;94480.06;10476178;28;3265;-51
2023/03/06 15:00:53;;;;;;;;;;;;;;;18.33;30.97;94483.56;10471670;28;2727;-53
2023/03/06 15:05:55;;;;;;;;;;;;;;;18.39;30.87;94485.81;10478459;28;2728;-55
2023/03/06 15:10:59;;;;;;;;;;;;;;;18.49;30.67;94482.25;10477748;28;3302;-53
2023/03/06 15:16:04;;;;;;;;;;;;;;;18.55;30.63;94484.50;10477304;28;2775;-52
2023/03/06 15:21:06;;;;;;;;;;;;;;;18.62;30.45;94476.25;10478798;28;3041;-53
2023/03/06 15:26:33;;;;;;;;;;;;;;;18.66;30.46;94477.22;10473490;28;2941;-53
2023/03/06 15:31:34;;;;;;;;;;;;;;;18.73;30.38;94477.63;10452080;28;3296;-52
2023/03/06 15:36:35;;;;;;;;;;;;;;;18.78;30.35;94474.88;10470269;28;2674;-54
2023/03/06 15:41:36;;;;;;;;;;;;;;;18.85;30.23;94474.50;10449628;28;3306;-53
2023/03/06 15:46:36;;;;;;;;;;;;;;;18.87;30.11;94473.16;10484949;28;2687;-52
2023/03/06 15:51:37;;;;;;;;;;;;;;;18.91;29.94;94470.69;10482535;28;3307;-53
2023/03/06 15:56:38;;;;;;;;;;;;;;;18.96;29.97;94475.88;10475249;28;2722;-53
2023/03/06 16:01:39;;;;;;;;;;;;;;;19.00;29.83;94479.47;10466860;28;2674;-52
2023/03/06 16:06:40;;;;;;;;;;;;;;;19.01;29.71;94481.78;10483532;28;3257;-53
2023/03/06 16:11:43;;;;;;;;;;;;;;;19.06;29.54;94483.53;10480550;28;3285;-52
2023/03/06 16:16:43;;;;;;;;;;;;;;;19.05;29.67;94481.97;10476157;28;2730;-51
2023/03/06 16:21:44;;;;;;;;;;;;;;;19.10;29.57;94487.13;10476366;28;3347;-50
2023/03/06 16:26:45;;;;;;;;;;;;;;;19.07;29.74;94490.34;10478067;28;2880;-51
2023/03/06 16:31:46;;;;;;;;;;;;;;;19.09;29.67;94493.44;10468638;28;2804;-50
2023/03/06 16:36:47;;;;;;;;;;;;;;;19.08;29.58;94490.03;10480598;28;3240;-52
2023/03/06 16:41:48;;;;;;;;;;;;;;;19.08;29.65;94497.91;10483908;28;3336;-54
2023/03/06 16:46:49;;;;;;;;;;;;;;;19.09;29.73;94496.06;10478262;28;3469;-53
2023/03/06 16:51:49;;;;;;;;;;;;;;;19.10;29.65;94501.03;10475115;28;3225;-51
2023/03/06 16:56:59;;;;;;;;;;;;;;;19.10;29.55;94501.03;10477203;28;3335;-54
2023/03/06 17:02:02;;;;;;;;;;;;;;;19.10;29.57;94492.38;10472083;28;3288;-52
2023/03/06 17:07:13;;;;;;;;;;;;;;;19.11;29.49;94497.34;10470363;28;3275;-53
2023/03/06 17:12:13;;;;;;;;;;;;;;;19.09;29.58;94491.59;10470148;28;2696;-53
2023/03/06 17:17:14;;;;;;;;;;;;;;;19.10;29.51;94498.41;10478283;28;3353;-51
2023/03/06 17:22:16;;;;;;;;;;;;;;;19.09;29.66;94499.47;10472098;28;3267;-52
2023/03/06 17:27:17;;;;;;;;;;;;;;;19.13;29.71;94504.91;10473298;28;3333;-54
2023/03/06 17:32:18;;;;;;;;;;;;;;;19.14;29.57;94511.75;10475185;28;3502;-54
2023/03/06 17:37:19;;;;;;;;;;;;;;;19.17;29.38;94517.19;10469094;28;3296;-53
2023/03/06 17:42:20;;;;;;;;;;;;;;;19.22;29.60;94514.47;10476025;28;3291;-54
2023/03/06 17:47:22;;;;;;;;;;;;;;;19.28;29.61;94518.53;10475229;28;3332;-49
2023/03/06 17:52:23;;;;;;;;;;;;;;;19.31;29.49;94525.03;10478622;28;3353;-49
2023/03/06 17:57:23;;;;;;;;;;;;;;;19.34;29.64;94525.25;10474894;28;3281;-53
2023/03/06 18:02:24;;;;;;;;;;;;;;;19.36;29.44;94520.50;10480083;28;2688;-50
2023/03/06 18:07:25;;;;;;;;;;;;;;;19.39;29.82;94530.41;10474072;28;2704;-53
2023/03/06 18:12:25;;;;;;;;;;;;;;;19.40;29.67;94526.72;10474682;28;3360;-54
2023/03/06 18:17:26;;;;;;;;;;;;;;;19.42;29.64;94527.19;10478695;28;2711;-51
2023/03/06 18:22:30;;;;;;;;;;;;;;;19.45;29.70;94529.22;10478144;28;3273;-53
2023/03/06 18:27:32;;;;;;;;;;;;;;;19.45;29.76;94537.09;10471099;28;3252;-50
2023/03/06 18:32:32;;;;;;;;;;;;;;;19.49;29.75;94545.94;10471430;28;3311;-53
2023/03/06 18:37:34;;;;;;;;;;;;;;;19.51;29.76;94543.06;10454662;28;3248;-54
2023/03/06 18:42:34;;;;;;;;;;;;;;;19.53;30.17;94548.78;10467727;28;2848;-54
2023/03/06 18:47:35;;;;;;;;;;;;;;;19.58;30.43;94543.41;10478943;28;3264;-53
2023/03/06 18:52:35;;;;;;;;;;;;;;;19.60;30.52;94541.25;10470941;28;3309;-52
2023/03/06 18:57:35;;;;;;;;;;;;;;;19.67;30.41;94546.13;10470716;28;2740;-54
2023/03/06 19:02:36;;;;;;;;;;;;;;;19.69;30.33;94538.72;10465736;28;2828;-54
2023/03/06 19:07:36;;;;;;;;;;;;;;;19.70;30.10;94542.91;10464287;28;2806;-54
2023/03/06 19:12:36;;;;;;;;;;;;;;;19.70;30.02;94535.78;10458010;28;3364;-56
2023/03/06 19:17:37;;;;;;;;;;;;;;;19.72;30.05;94544.16;10469155;28;3321;-56
2023/03/06 19:22:38;;;;;;;;;;;;;;;19.72;30.12;94556.53;10471455;28;3257;-56
2023/03/06 19:27:39;;;;;;;;;;;;;;;19.75;29.99;94548.03;10463512;28;3229;-53
2023/03/06 19:32:39;;;;;;;;;;;;;;;19.73;29.87;94548.34;10467690;28;2860;-57
2023/03/06 19:37:40;;;;;;;;;;;;;;;19.71;30.04;94553.13;10469937;28;3354;-56
2023/03/06 19:42:41;;;;;;;;;;;;;;;19.70;29.88;94546.28;10471705;28;2819;-55
2023/03/06 19:47:42;;;;;;;;;;;;;;;19.68;30.10;94547.69;10468476;28;3279;-55
2023/03/06 19:52:42;;;;;;;;;;;;;;;19.69;30.17;94549.22;10467522;28;2773;-54
2023/03/06 19:57:44;;;;;;;;;;;;;;;19.67;30.24;94546.13;10474776;28;3303;-53
2023/03/06 20:02:45;;;;;;;;;;;;;;;19.64;30.28;94546.72;10469661;28;2791;-56
2023/03/06 20:07:45;;;;;;;;;;;;;;;19.68;30.78;94548.44;10462248;28;3260;-54
2023/03/06 20:12:45;;;;;;;;;;;;;;;19.69;31.42;94552.63;10448227;28;2710;-54
2023/03/06 20:17:49;;;;;;;;;;;;;;;19.70;31.77;94559.44;10465594;28;3503;-56
2023/03/06 20:22:51;;;;;;;;;;;;;;;19.72;31.84;94567.06;10463357;28;3464;-56
2023/03/06 20:27:51;;;;;;;;;;;;;;;19.75;31.88;94558.56;10468793;28;2659;-56
2023/03/06 20:32:53;;;;;;;;;;;;;;;19.75;31.80;94559.34;10473075;28;2761;-56
2023/03/06 20:38:03;;;;;;;;;;;;;;;19.74;31.97;94552.50;10469848;28;3247;-54
2023/03/06 20:43:03;;;;;;;;;;;;;;;19.72;32.03;94553.91;10469379;28;2752;-56
2023/03/06 20:48:04;;;;;;;;;;;;;;;19.71;32.33;94568.13;10462541;28;3303;-56
2023/03/06 20:53:05;;;;;;;;;;;;;;;19.67;32.76;94561.88;10479224;28;3225;-55
2023/03/06 20:58:06;;;;;;;;;;;;;;;19.66;32.73;94560.34;10468625;28;3298;-56
2023/03/06 21:03:06;;;;;;;;;;;;;;;19.60;32.46;94553.66;10468049;28;2729;-51
2023/03/06 21:08:07;;;;;;;;;;;;;;;19.54;32.10;94552.19;10481483;28;3185;-51
2023/03/06 21:13:07;;;;;;;;;;;;;;;19.45;32.45;94539.72;10460229;28;3248;-53
2023/03/06 21:18:08;;;;;;;;;;;;;;;19.40;32.25;94536.44;10448856;28;3355;-48
2023/03/06 21:23:08;;;;;;;;;;;;;;;19.33;32.20;94543.94;10472168;28;3281;-50
2023/03/06 21:28:10;;;;;;;;;;;;;;;19.28;32.10;94544.03;10473009;28;3551;-52
2023/03/06 21:33:10;;;;;;;;;;;;;;;19.23;32.14;94552.78;10459842;28;3312;-52
2023/03/06 21:38:12;;;;;;;;;;;;;;;19.18;31.84;94550.25;10462501;28;3296;-53
2023/03/06 21:43:14;;;;;;;;;;;;;;;19.11;31.76;94552.50;10466029;28;3281;-49
2023/03/06 21:48:15;;;;;;;;;;;;;;;19.06;31.72;94551.81;10473784;28;3308;-51
2023/03/06 21:53:23;;;;;;;;;;;;;;;19.01;31.81;94542.19;10469373;28;3360;-50
2023/03/06 21:58:25;;;;;;;;;;;;;;;18.97;31.56;94549.09;10470919;28;3238;-51
2023/03/06 22:03:25;;;;;;;;;;;;;;;18.93;31.59;94545.50;10471017;28;3304;-52
2023/03/06 22:08:27;;;;;;;;;;;;;;;18.89;31.57;94535.88;10455315;28;3360;-48
2023/03/06 22:13:27;;;;;;;;;;;;;;;18.85;31.39;94521.75;10449987;28;3308;-53
2023/03/06 22:18:27;;;;;;;;;;;;;;;18.82;31.49;94533.63;10471400;28;3272;-50
2023/03/06 22:23:27;;;;;;;;;;;;;;;18.79;31.28;94526.34;10463790;28;3296;-53
2023/03/06 22:28:28;;;;;;;;;;;;;;;18.74;31.32;94515.91;10466356;28;3307;-52
2023/03/06 22:33:28;;;;;;;;;;;;;;;18.72;31.29;94522.53;10472208;28;2693;-53
2023/03/06 22:38:29;;;;;;;;;;;;;;;18.67;31.15;94518.13;10468599;28;3248;-51
2023/03/06 22:43:30;;;;;;;;;;;;;;;18.65;31.23;94509.78;10469401;28;3356;-54
2023/03/06 22:48:30;;;;;;;;;;;;;;;18.60;31.25;94497.56;10472057;28;3460;-53
2023/03/06 22:53:31;;;;;;;;;;;;;;;18.57;31.19;94494.72;10465487;28;3298;-54
2023/03/06 22:58:36;;;;;;;;;;;;;;;18.55;31.11;94494.22;10462539;28;3300;-54
2023/03/06 23:03:37;;;;;;;;;;;;;;;18.53;31.11;94496.34;10460521;28;2706;-53
2023/03/06 23:08:37;;;;;;;;;;;;;;;18.49;31.01;94495.38;10466070;28;2671;-53
2023/03/06 23:13:38;;;;;;;;;;;;;;;18.47;31.01;94474.69;10463290;28;3256;-52
2023/03/06 23:18:38;;;;;;;;;;;;;;;18.45;30.98;94478.66;10459941;28;3304;-50
2023/03/06 23:23:39;;;;;;;;;;;;;;;18.42;30.81;94479.22;10439971;28;3308;-51
2023/03/06 23:28:40;;;;;;;;;;;;;;;18.41;30.89;94472.41;10465331;28;2765;-49
2023/03/06 23:33:42;;;;;;;;;;;;;;;18.39;30.77;94482.41;10470557;28;3253;-51
2023/03/06 23:38:43;;;;;;;;;;;;;;;18.35;30.75;94482.22;10466044;28;3599;-52
2023/03/06 23:43:43;;;;;;;;;;;;;;;18.33;30.80;94481.75;10473834;28;3335;-51
2023/03/06 23:48:44;;;;;;;;;;;;;;;18.31;30.70;94475.22;10471713;28;2757;-47
2023/03/06 23:53:45;;;;;;;;;;;;;;;18.30;30.63;94486.78;10467464;28;3271;-53
2023/03/06 23:58:47;;;;;;;;;;;;;;;18.27;30.70;94469.00;10466765;28;3372;-52
